createdAt,value
2022-12-19T00:01:08.911Z,32.20
2022-12-19T00:03:13.950Z,31.43
2022-12-19T00:05:15.775Z,35.53
2022-12-19T00:07:18.622Z,32.23
2022-12-19T00:09:20.267Z,33.83
2022-12-19T00:11:23.684Z,30.90
2022-12-19T00:13:29.552Z,31.30
2022-12-19T00:15:36.776Z,32.73
2022-12-19T00:17:38.406Z,32.00
2022-12-19T00:19:40.103Z,34.30
2022-12-19T00:21:41.872Z,30.30
2022-12-19T00:23:47.031Z,29.03
2022-12-19T00:25:48.701Z,33.03
2022-12-19T00:27:53.344Z,34.03
2022-12-19T00:29:54.998Z,32.93
2022-12-19T00:31:58.311Z,32.57
2022-12-19T00:34:01.527Z,31.20
2022-12-19T00:36:06.052Z,30.60
2022-12-19T00:38:07.819Z,32.57
2022-12-19T00:40:10.454Z,31.33
2022-12-19T00:42:13.638Z,30.53
2022-12-19T00:44:16.614Z,30.53
2022-12-19T00:46:18.401Z,28.10
2022-12-19T00:48:20.983Z,29.83
2022-12-19T00:50:22.684Z,29.63
2022-12-19T00:52:24.335Z,30.67
2022-12-19T00:54:27.110Z,29.13
2022-12-19T00:56:31.544Z,28.73
2022-12-19T00:58:46.584Z,27.10
2022-12-19T01:00:50.203Z,31.93
2022-12-19T01:02:52.061Z,30.70
2022-12-19T01:04:53.860Z,30.97
2022-12-19T01:07:01.921Z,28.83
2022-12-19T01:09:07.603Z,30.33
2022-12-19T01:11:09.695Z,28.77
2022-12-19T01:13:11.374Z,29.00
2022-12-19T01:15:18.680Z,28.93
2022-12-19T01:17:20.405Z,29.40
2022-12-19T01:19:22.806Z,34.77
2022-12-19T01:21:24.493Z,29.87
2022-12-19T01:23:27.001Z,32.53
2022-12-19T01:25:28.821Z,34.80
2022-12-19T01:27:31.233Z,33.77
2022-12-19T01:29:34.664Z,31.77
2022-12-19T01:31:41.669Z,32.27
2022-12-19T01:33:43.463Z,29.97
2022-12-19T01:35:48.628Z,31.77
2022-12-19T01:37:54.880Z,30.43
2022-12-19T01:40:14.916Z,29.00
2022-12-19T01:42:24.213Z,32.00
2022-12-19T01:44:26.476Z,31.90
2022-12-19T01:46:38.294Z,33.03
2022-12-19T01:48:43.674Z,30.83
2022-12-19T01:51:02.663Z,31.53
2022-12-19T01:53:09.252Z,32.93
2022-12-19T01:55:11.741Z,29.50
2022-12-19T01:57:18.014Z,30.23
2022-12-19T01:59:24.777Z,32.43
2022-12-19T02:01:30.166Z,31.20
2022-12-19T02:03:35.603Z,29.17
2022-12-19T02:05:38.681Z,29.10
2022-12-19T02:07:41.930Z,27.80
2022-12-19T02:09:50.572Z,27.83
2022-12-19T02:12:00.955Z,27.43
2022-12-19T02:14:03.443Z,29.80
2022-12-19T02:16:15.928Z,31.20
2022-12-19T02:18:30.723Z,29.23
2022-12-19T02:20:57.471Z,29.13
2022-12-19T02:23:42.752Z,29.03
2022-12-19T02:26:18.462Z,28.80
2022-12-19T02:28:34.970Z,23.90
2022-12-19T02:31:14.260Z,24.30
2022-12-19T02:33:47.722Z,28.37
2022-12-19T02:36:16.457Z,26.50
2022-12-19T02:38:56.399Z,25.30
2022-12-19T02:41:05.409Z,27.00
2022-12-19T02:43:09.982Z,27.90
2022-12-19T02:45:22.009Z,27.70
2022-12-19T02:47:33.348Z,28.23
2022-12-19T02:49:37.914Z,29.17
2022-12-19T02:51:39.811Z,25.70
2022-12-19T02:53:43.239Z,28.40
2022-12-19T02:56:00.068Z,28.40
2022-12-19T02:58:21.760Z,28.73
2022-12-19T03:00:27.464Z,29.97
2022-12-19T03:02:56.139Z,28.33
2022-12-19T03:05:37.039Z,29.13
2022-12-19T03:07:50.225Z,29.50
2022-12-19T03:10:22.999Z,29.90
2022-12-19T03:12:31.054Z,28.90
2022-12-19T03:14:33.878Z,30.37
2022-12-19T03:16:36.862Z,26.43
2022-12-19T03:18:40.664Z,28.33
2022-12-19T03:21:03.629Z,27.07
2022-12-19T03:23:05.969Z,28.10
2022-12-19T03:25:09.903Z,28.33
2022-12-19T03:27:16.991Z,26.90
2022-12-19T03:29:39.719Z,29.50
2022-12-19T03:31:42.852Z,28.10
2022-12-19T03:33:47.338Z,27.33
2022-12-19T03:35:54.350Z,28.10
2022-12-19T03:38:00.593Z,28.73
2022-12-19T03:40:12.731Z,28.10
2022-12-19T03:42:37.143Z,26.30
2022-12-19T03:44:42.598Z,27.53
2022-12-19T03:46:51.559Z,25.97
2022-12-19T03:48:54.815Z,27.37
2022-12-19T03:51:22.160Z,26.40
2022-12-19T03:53:41.551Z,26.33
2022-12-19T03:55:51.692Z,22.90
2022-12-19T03:58:12.159Z,26.53
2022-12-19T04:00:16.536Z,26.67
2022-12-19T04:02:21.455Z,24.43
2022-12-19T04:04:28.571Z,24.40
2022-12-19T04:06:33.240Z,26.53
2022-12-19T04:08:36.503Z,25.63
2022-12-19T04:10:51.458Z,24.83
2022-12-19T04:13:03.003Z,26.30
2022-12-19T04:15:08.267Z,28.83
2022-12-19T04:17:51.393Z,25.60
2022-12-19T04:20:03.836Z,25.57
2022-12-19T04:22:11.969Z,27.97
2022-12-19T04:24:23.928Z,27.33
2022-12-19T04:26:26.716Z,25.67
2022-12-19T04:28:50.816Z,26.07
2022-12-19T04:30:54.310Z,26.73
2022-12-19T04:32:56.949Z,30.30
2022-12-19T04:34:58.977Z,27.63
2022-12-19T04:37:00.703Z,25.77
2022-12-19T04:39:02.891Z,25.50
2022-12-19T04:41:04.994Z,24.43
2022-12-19T04:43:08.244Z,25.57
2022-12-19T04:45:10.558Z,26.33
2022-12-19T04:47:14.966Z,28.30
2022-12-19T04:49:19.151Z,27.90
2022-12-19T04:51:21.214Z,25.73
2022-12-19T04:53:22.944Z,26.23
2022-12-19T04:55:27.013Z,24.67
2022-12-19T04:57:32.124Z,26.73
2022-12-19T04:59:34.012Z,26.10
2022-12-19T05:01:35.848Z,24.73
2022-12-19T05:03:37.658Z,24.07
2022-12-19T05:05:40.572Z,25.13
2022-12-19T05:07:42.333Z,23.83
2022-12-19T05:09:44.062Z,21.60
2022-12-19T05:11:45.822Z,22.40
2022-12-19T05:13:49.741Z,21.17
2022-12-19T05:16:08.824Z,23.63
2022-12-19T05:18:10.501Z,22.00
2022-12-19T05:20:12.455Z,19.67
2022-12-19T05:22:14.188Z,19.10
2022-12-19T05:24:15.969Z,21.93
2022-12-19T05:26:21.230Z,18.93
2022-12-19T05:28:25.519Z,19.90
2022-12-19T05:30:27.231Z,18.97
2022-12-19T05:32:32.690Z,19.37
2022-12-19T05:34:34.363Z,20.20
2022-12-19T05:36:36.057Z,20.50
2022-12-19T05:38:37.976Z,22.00
2022-12-19T05:40:39.603Z,22.77
2022-12-19T05:42:41.274Z,25.90
2022-12-19T05:44:43.875Z,24.50
2022-12-19T05:46:45.642Z,22.37
2022-12-19T05:48:47.996Z,22.77
2022-12-19T05:50:50.848Z,24.47
2022-12-19T05:52:52.542Z,24.83
2022-12-19T05:54:54.495Z,26.23
2022-12-19T05:56:58.365Z,23.73
2022-12-19T05:59:01.469Z,24.23
2022-12-19T06:01:10.930Z,24.27
2022-12-19T06:03:12.716Z,26.73
2022-12-19T06:05:17.072Z,25.17
2022-12-19T06:07:21.014Z,26.90
2022-12-19T06:09:23.137Z,23.93
2022-12-19T06:11:28.589Z,26.20
2022-12-19T06:13:31.619Z,23.57
2022-12-19T06:15:33.300Z,24.70
2022-12-19T06:17:37.277Z,24.13
2022-12-19T06:19:38.983Z,25.53
2022-12-19T06:21:47.931Z,23.80
2022-12-19T06:23:50.992Z,23.93
2022-12-19T06:25:52.747Z,22.40
2022-12-19T06:27:54.435Z,23.33
2022-12-19T06:29:56.132Z,24.03
2022-12-19T06:31:57.795Z,25.40
2022-12-19T06:34:00.889Z,25.33
2022-12-19T06:36:05.765Z,22.27
2022-12-19T06:38:07.449Z,23.47
2022-12-19T06:40:29.727Z,21.57
2022-12-19T06:42:31.416Z,21.37
2022-12-19T06:44:33.507Z,20.27
2022-12-19T06:46:35.229Z,21.27
2022-12-19T06:48:37.005Z,22.47
2022-12-19T06:50:40.627Z,20.17
2022-12-19T06:52:45.122Z,20.93
2022-12-19T06:54:47.817Z,22.90
2022-12-19T06:56:50.660Z,20.40
2022-12-19T06:58:52.365Z,22.27
2022-12-19T07:00:54.532Z,20.37
2022-12-19T07:02:58.408Z,19.57
2022-12-19T07:05:06.766Z,20.50
2022-12-19T07:07:08.569Z,19.90
2022-12-19T07:09:10.419Z,21.53
2022-12-19T07:11:13.218Z,20.83
2022-12-19T07:13:15.039Z,22.53
2022-12-19T07:15:16.796Z,19.83
2022-12-19T07:17:19.814Z,20.90
2022-12-19T07:19:22.644Z,18.87
2022-12-19T07:21:25.118Z,20.07
2022-12-19T07:23:28.333Z,19.60
2022-12-19T07:25:32.625Z,22.50
2022-12-19T07:27:36.465Z,18.97
2022-12-19T07:29:38.141Z,18.47
2022-12-19T07:31:40.138Z,19.27
2022-12-19T07:33:42.150Z,18.43
2022-12-19T07:35:43.807Z,20.40
2022-12-19T07:37:47.865Z,21.13
2022-12-19T07:39:49.647Z,21.37
2022-12-19T07:41:51.300Z,21.57
2022-12-19T07:44:07.764Z,18.40
2022-12-19T07:46:09.711Z,18.10
2022-12-19T07:48:13.805Z,19.00
2022-12-19T07:50:15.514Z,20.20
2022-12-19T07:52:17.913Z,18.83
2022-12-19T07:54:19.589Z,21.03
2022-12-19T07:56:21.369Z,18.60
2022-12-19T07:58:23.181Z,18.80
2022-12-19T08:00:24.833Z,18.80
2022-12-19T08:02:33.322Z,19.97
2022-12-19T08:04:35.325Z,19.00
2022-12-19T08:06:41.029Z,17.87
2022-12-19T08:08:43.294Z,17.43
2022-12-19T08:10:50.181Z,16.97
2022-12-19T08:12:54.249Z,17.50
2022-12-19T08:14:57.475Z,18.27
2022-12-19T08:19:24.716Z,16.53
2022-12-19T08:21:29.312Z,17.20
2022-12-19T08:23:31.152Z,17.97
2022-12-19T08:25:33.267Z,18.63
2022-12-19T08:27:37.222Z,19.77
2022-12-19T08:29:38.926Z,15.73
2022-12-19T08:31:44.022Z,18.10
2022-12-19T08:33:48.040Z,16.97
2022-12-19T08:35:49.838Z,18.93
2022-12-19T08:37:54.688Z,19.07
2022-12-19T08:39:56.529Z,16.43
2022-12-19T08:41:58.544Z,17.70
2022-12-19T08:44:00.798Z,18.30
2022-12-19T08:46:02.999Z,14.50
2022-12-19T08:48:05.252Z,16.17
2022-12-19T08:50:07.872Z,15.97
2022-12-19T08:52:11.643Z,15.20
2022-12-19T08:54:13.426Z,16.23
2022-12-19T08:56:20.499Z,16.67
2022-12-19T08:58:25.552Z,15.57
2022-12-19T09:00:27.217Z,13.50
2022-12-19T09:02:32.616Z,13.90
2022-12-19T09:05:58.153Z,15.13
2022-12-19T09:06:57.640Z,17.00
2022-12-19T09:09:00.519Z,13.43
2022-12-19T09:11:14.911Z,15.83
2022-12-19T09:13:16.568Z,17.13
2022-12-19T09:15:18.413Z,13.67
2022-12-19T09:17:22.875Z,15.10
2022-12-19T09:19:24.687Z,14.27
2022-12-19T09:21:29.203Z,13.07
2022-12-19T09:23:34.005Z,12.23
2022-12-19T09:25:38.114Z,15.30
2022-12-19T09:28:17.477Z,13.53
2022-12-19T09:30:02.630Z,11.70
2022-12-19T09:32:04.481Z,12.37
2022-12-19T09:34:06.420Z,12.90
2022-12-19T09:36:12.075Z,13.47
2022-12-19T09:38:13.763Z,12.83
2022-12-19T09:40:17.164Z,12.63
2022-12-19T09:42:56.568Z,11.20
2022-12-19T09:45:20.425Z,13.00
2022-12-19T09:47:36.759Z,11.23
2022-12-19T09:49:43.128Z,15.10
2022-12-19T09:51:57.163Z,13.30
2022-12-19T09:54:08.656Z,13.80
2022-12-19T09:56:18.997Z,13.30
2022-12-19T09:58:37.600Z,13.07
2022-12-19T10:00:59.779Z,12.13
2022-12-19T10:03:39.824Z,10.83
2022-12-19T10:07:15.826Z,14.50
2022-12-19T10:08:44.807Z,11.37
2022-12-19T10:12:42.259Z,13.17
2022-12-19T10:14:06.784Z,12.27
2022-12-19T10:16:20.401Z,14.67
2022-12-19T10:18:32.798Z,15.07
2022-12-19T10:20:45.626Z,16.07
2022-12-19T10:23:23.068Z,14.27
2022-12-19T10:25:55.269Z,12.87
2022-12-19T10:28:32.960Z,12.17
2022-12-19T10:30:44.824Z,11.07
2022-12-19T10:32:59.928Z,10.50
2022-12-19T10:35:02.177Z,13.67
2022-12-19T10:37:25.341Z,10.47
2022-12-19T10:39:35.789Z,9.83
2022-12-19T10:41:44.296Z,8.77
2022-12-19T10:44:03.061Z,11.53
2022-12-19T10:46:21.273Z,8.37
2022-12-19T10:48:31.016Z,11.50
2022-12-19T10:50:34.122Z,10.20
2022-12-19T10:53:05.186Z,11.57
2022-12-19T10:55:32.853Z,10.13
2022-12-19T10:57:36.927Z,11.63
2022-12-19T10:59:40.086Z,9.53
2022-12-19T11:01:42.256Z,10.40
2022-12-19T11:03:51.487Z,10.40
2022-12-19T11:05:58.859Z,12.90
2022-12-19T11:08:11.337Z,9.73
2022-12-19T11:12:18.901Z,13.30
2022-12-19T11:18:47.189Z,10.77
2022-12-19T11:19:00.310Z,8.93
2022-12-19T11:23:32.134Z,11.37
2022-12-19T11:29:27.630Z,8.37
2022-12-19T11:30:35.303Z,8.73
2022-12-19T11:30:41.541Z,11.77
2022-12-19T11:30:44.327Z,12.73
2022-12-19T11:33:15.663Z,8.63
2022-12-19T11:35:24.821Z,8.10
2022-12-19T11:37:33.542Z,9.33
2022-12-19T11:40:00.224Z,8.03
2022-12-19T11:42:30.125Z,10.27
2022-12-19T11:44:55.631Z,7.53
2022-12-19T11:47:22.677Z,9.40
2022-12-19T11:49:37.065Z,7.93
2022-12-19T11:51:46.107Z,8.43
2022-12-19T11:53:57.118Z,9.73
2022-12-19T11:56:15.995Z,8.17
2022-12-19T11:58:23.817Z,8.70
2022-12-19T12:00:25.695Z,10.67
2022-12-19T12:03:05.105Z,9.23
2022-12-19T12:05:39.996Z,9.40
2022-12-19T12:08:30.067Z,6.60
2022-12-19T12:14:26.678Z,7.73
2022-12-19T12:19:13.837Z,7.10
2022-12-19T12:27:32.295Z,9.00
2022-12-19T12:31:00.245Z,9.53
2022-12-19T12:31:07.462Z,7.53
2022-12-19T12:31:17.001Z,8.90
2022-12-19T12:31:50.064Z,8.47
2022-12-19T12:32:06.759Z,7.03
2022-12-19T12:35:42.372Z,8.90
2022-12-19T12:37:03.540Z,8.77
2022-12-19T12:40:44.688Z,9.10
2022-12-19T12:43:11.943Z,8.93
2022-12-19T12:45:32.498Z,8.17
2022-12-19T12:47:36.101Z,9.17
2022-12-19T12:49:43.217Z,7.13
2022-12-19T12:51:46.946Z,7.43
2022-12-19T12:53:54.429Z,9.93
2022-12-19T12:56:00.610Z,9.27
2022-12-19T12:58:09.181Z,7.97
2022-12-19T13:00:21.524Z,8.63
2022-12-19T13:02:24.915Z,9.60
2022-12-19T13:04:41.111Z,11.50
2022-12-19T13:07:03.499Z,8.53
2022-12-19T13:09:10.647Z,7.70
2022-12-19T13:11:55.834Z,7.63
2022-12-19T13:13:58.075Z,8.87
2022-12-19T13:15:59.746Z,8.57
2022-12-19T13:18:13.418Z,7.57
2022-12-19T13:20:42.811Z,7.47
2022-12-19T13:23:20.080Z,9.63
2022-12-19T13:25:49.276Z,7.47
2022-12-19T13:27:54.620Z,9.13
2022-12-19T13:30:14.064Z,8.13
2022-12-19T13:32:18.206Z,8.80
2022-12-19T13:34:19.977Z,9.30
2022-12-19T13:39:50.678Z,8.33
2022-12-19T13:39:59.206Z,10.50
2022-12-19T13:42:08.610Z,6.20
2022-12-19T13:44:12.764Z,6.43
2022-12-19T13:46:45.734Z,5.97
2022-12-19T13:48:52.155Z,7.60
2022-12-19T13:50:55.032Z,7.57
2022-12-19T13:53:01.096Z,9.97
2022-12-19T13:55:03.219Z,6.37
2022-12-19T13:57:22.054Z,7.00
2022-12-19T13:59:27.530Z,6.67
2022-12-19T14:01:35.126Z,7.93
2022-12-19T14:03:43.645Z,7.37
2022-12-19T14:06:18.238Z,7.37
2022-12-19T14:08:08.436Z,7.77
2022-12-19T14:11:32.383Z,7.13
2022-12-19T14:13:44.361Z,8.63
2022-12-19T14:15:41.808Z,7.90
2022-12-19T14:17:49.855Z,7.07
2022-12-19T14:19:53.154Z,6.17
2022-12-19T14:22:20.731Z,6.93
2022-12-19T14:24:26.931Z,8.33
2022-12-19T14:28:19.827Z,7.87
2022-12-19T14:28:58.401Z,7.17
2022-12-19T14:31:05.200Z,7.70
2022-12-19T14:33:43.932Z,7.13
2022-12-19T14:36:07.810Z,6.30
2022-12-19T14:39:23.966Z,7.20
2022-12-19T14:41:07.386Z,6.13
2022-12-19T14:43:58.918Z,7.57
2022-12-19T14:54:06.892Z,5.97
2022-12-19T14:54:14.415Z,6.60
2022-12-19T14:54:15.011Z,8.20
2022-12-19T14:55:11.967Z,9.17
2022-12-19T14:58:57.778Z,6.83
2022-12-19T15:01:11.035Z,6.90
2022-12-19T15:03:23.749Z,8.63
2022-12-19T15:05:29.908Z,7.13
2022-12-19T15:07:33.934Z,6.40
2022-12-19T15:11:05.451Z,7.47
2022-12-19T15:14:48.944Z,6.87
2022-12-19T15:15:03.532Z,7.07
2022-12-19T15:17:21.217Z,7.07
2022-12-19T15:19:23.231Z,8.37
2022-12-19T15:21:27.981Z,8.13
2022-12-19T15:23:30.659Z,6.10
2022-12-19T15:26:03.293Z,7.57
2022-12-19T15:27:54.096Z,8.17
2022-12-19T15:29:55.756Z,7.10
2022-12-19T15:31:57.458Z,8.47
2022-12-19T15:34:32.889Z,7.13
2022-12-19T15:36:21.108Z,8.47
2022-12-19T15:38:22.846Z,7.40
2022-12-19T15:40:24.525Z,8.33
2022-12-19T15:42:27.690Z,5.80
2022-12-19T15:44:43.406Z,6.87
2022-12-19T15:46:49.008Z,8.43
2022-12-19T15:48:52.824Z,6.53
2022-12-19T15:50:54.477Z,8.63
2022-12-19T15:53:00.165Z,8.73
2022-12-19T15:55:02.595Z,7.70
2022-12-19T15:57:04.290Z,7.67
2022-12-19T15:59:23.406Z,7.00
2022-12-19T16:01:27.077Z,9.17
2022-12-19T16:03:31.792Z,9.70
2022-12-19T16:05:33.674Z,9.83
2022-12-19T16:07:37.869Z,7.47
2022-12-19T16:09:39.566Z,7.90
2022-12-19T16:11:41.275Z,9.03
2022-12-19T16:13:48.892Z,6.17
2022-12-19T16:15:52.216Z,6.87
2022-12-19T16:17:55.611Z,8.37
2022-12-19T16:19:57.832Z,8.33
2022-12-19T16:22:00.212Z,6.93
2022-12-19T16:24:01.972Z,8.53
2022-12-19T16:26:04.900Z,7.13
2022-12-19T16:28:12.658Z,8.77
2022-12-19T16:30:20.943Z,8.63
2022-12-19T16:32:26.099Z,6.83
2022-12-19T16:34:28.548Z,7.27
2022-12-19T16:36:30.833Z,12.00
2022-12-19T16:38:33.223Z,9.97
2022-12-19T16:40:34.962Z,6.67
2022-12-19T16:42:36.699Z,8.80
2022-12-19T16:44:38.398Z,7.97
2022-12-19T16:46:42.177Z,8.10
2022-12-19T16:48:48.055Z,6.87
2022-12-19T16:50:50.012Z,6.23
2022-12-19T16:52:52.855Z,7.30
2022-12-19T16:54:54.489Z,8.67
2022-12-19T16:56:58.569Z,8.40
2022-12-19T16:59:04.614Z,7.07
2022-12-19T17:01:09.394Z,6.37
2022-12-19T17:03:36.311Z,7.50
2022-12-19T17:05:38.357Z,6.87
2022-12-19T17:07:40.079Z,6.13
2022-12-19T17:09:41.781Z,10.20
2022-12-19T17:12:07.437Z,11.57
2022-12-19T17:14:17.807Z,8.47
2022-12-19T17:16:26.767Z,11.63
2022-12-19T17:18:35.400Z,13.10
2022-12-19T17:20:43.265Z,8.93
2022-12-19T17:22:45.801Z,7.40
2022-12-19T17:24:51.018Z,6.60
2022-12-19T17:26:52.714Z,6.80
2022-12-19T17:28:55.738Z,8.57
2022-12-19T17:31:02.392Z,6.73
2022-12-19T17:33:04.372Z,7.57
2022-12-19T17:35:08.621Z,7.47
2022-12-19T17:37:16.067Z,6.50
2022-12-19T17:39:23.323Z,7.23
2022-12-19T17:41:25.598Z,5.97
2022-12-19T17:43:27.226Z,7.87
2022-12-19T17:45:32.305Z,6.73
2022-12-19T17:47:36.440Z,7.57
2022-12-19T17:49:38.855Z,6.07
2022-12-19T17:51:40.529Z,6.40
2022-12-19T17:53:42.328Z,7.70
2022-12-19T17:55:43.959Z,6.93
2022-12-19T17:57:45.922Z,6.73
2022-12-19T17:59:47.644Z,7.70
2022-12-19T18:01:49.822Z,6.90
2022-12-19T18:03:56.962Z,7.27
2022-12-19T18:05:58.676Z,7.37
2022-12-19T18:08:00.501Z,8.80
2022-12-19T18:10:02.198Z,7.30
2022-12-19T18:12:04.044Z,8.07
2022-12-19T18:14:05.819Z,7.50
2022-12-19T18:16:13.225Z,6.63
2022-12-19T18:18:18.321Z,7.87
2022-12-19T18:20:32.020Z,9.10
2022-12-19T18:22:34.162Z,8.83
2022-12-19T18:24:35.981Z,9.13
2022-12-19T18:26:39.851Z,8.30
2022-12-19T18:28:42.201Z,9.97
2022-12-19T18:30:46.999Z,10.67
2022-12-19T18:32:52.433Z,8.03
2022-12-19T18:34:54.211Z,6.77
2022-12-19T18:36:58.216Z,5.43
2022-12-19T18:38:59.906Z,6.03
2022-12-19T18:41:03.965Z,7.33
2022-12-19T18:43:08.631Z,6.37
2022-12-19T18:45:20.608Z,6.67
2022-12-19T18:47:23.867Z,7.70
2022-12-19T18:49:27.717Z,5.90
2022-12-19T18:51:29.449Z,5.57
2022-12-19T18:53:37.329Z,7.57
2022-12-19T18:55:39.680Z,5.50
2022-12-19T18:57:42.809Z,5.90
2022-12-19T18:59:44.444Z,5.93
2022-12-19T19:01:47.187Z,5.60
2022-12-19T19:03:57.496Z,5.43
2022-12-19T19:06:01.850Z,6.90
2022-12-19T19:08:18.564Z,7.27
2022-12-19T19:10:28.414Z,5.90
2022-12-19T19:12:40.188Z,6.60
2022-12-19T19:14:42.016Z,6.07
2022-12-19T19:16:43.958Z,8.13
2022-12-19T19:18:58.848Z,5.50
2022-12-19T19:21:01.716Z,6.13
2022-12-19T19:23:06.075Z,5.87
2022-12-19T19:25:09.055Z,7.17
2022-12-19T19:27:10.743Z,5.43
2022-12-19T19:29:18.697Z,6.40
2022-12-19T19:31:23.273Z,6.60
2022-12-19T19:33:31.259Z,8.00
2022-12-19T19:35:33.790Z,7.80
2022-12-19T19:37:39.884Z,5.80
2022-12-19T19:39:41.991Z,5.10
2022-12-19T19:41:43.925Z,5.70
2022-12-19T19:43:45.644Z,5.67
2022-12-19T19:45:47.340Z,5.60
2022-12-19T19:47:49.277Z,6.13
2022-12-19T19:49:50.945Z,6.70
2022-12-19T19:51:56.960Z,5.03
2022-12-19T19:54:02.070Z,5.97
2022-12-19T19:56:04.917Z,6.07
2022-12-19T19:58:09.799Z,6.30
2022-12-19T20:00:12.078Z,6.13
2022-12-19T20:02:19.813Z,5.33
2022-12-19T20:04:21.943Z,4.97
2022-12-19T20:06:24.167Z,5.57
2022-12-19T20:08:26.118Z,5.37
2022-12-19T20:10:27.842Z,6.20
2022-12-19T20:12:29.638Z,5.43
2022-12-19T20:14:31.365Z,6.40
2022-12-19T20:16:33.723Z,4.43
2022-12-19T20:18:36.987Z,6.30
2022-12-19T20:20:38.952Z,4.17
2022-12-19T20:22:40.812Z,10.90
2022-12-19T20:24:42.497Z,7.47
2022-12-19T20:26:46.455Z,7.30
2022-12-19T20:28:53.150Z,7.40
2022-12-19T20:30:56.935Z,6.23
2022-12-19T20:33:01.442Z,5.47
2022-12-19T20:35:03.631Z,5.43
2022-12-19T20:37:06.467Z,4.90
2022-12-19T20:39:09.331Z,5.03
2022-12-19T20:41:10.978Z,6.37
2022-12-19T20:43:13.045Z,5.90
2022-12-19T20:45:14.737Z,6.07
2022-12-19T20:47:16.451Z,7.00
2022-12-19T20:49:18.693Z,4.77
2022-12-19T20:51:23.497Z,5.77
2022-12-19T20:53:25.931Z,5.77
2022-12-19T20:55:31.965Z,5.27
2022-12-19T20:57:33.663Z,7.93
2022-12-19T20:59:35.370Z,6.90
2022-12-19T21:01:40.230Z,6.63
2022-12-19T21:03:42.878Z,5.97
2022-12-19T21:05:44.830Z,6.73
2022-12-19T21:07:46.615Z,6.93
2022-12-19T21:09:50.194Z,6.13
2022-12-19T21:11:54.029Z,6.43
2022-12-19T21:13:55.882Z,6.23
2022-12-19T21:16:02.952Z,7.17
2022-12-19T21:18:04.832Z,5.67
2022-12-19T21:20:09.497Z,4.90
2022-12-19T21:22:13.629Z,4.80
2022-12-19T21:24:15.307Z,5.30
2022-12-19T21:26:17.042Z,4.60
2022-12-19T21:28:19.274Z,5.27
2022-12-19T21:30:21.002Z,5.50
2022-12-19T21:32:24.966Z,9.13
2022-12-19T21:34:26.666Z,9.67
2022-12-19T21:36:29.926Z,7.67
2022-12-19T21:38:31.592Z,5.03
2022-12-19T21:40:37.002Z,8.07
2022-12-19T21:42:38.693Z,5.43
2022-12-19T21:44:42.971Z,5.03
2022-12-19T21:46:44.831Z,5.03
2022-12-19T21:48:49.043Z,5.17
2022-12-19T21:50:55.775Z,5.77
2022-12-19T21:52:57.464Z,5.13
2022-12-19T21:54:59.178Z,5.67
2022-12-19T21:57:00.883Z,4.83
2022-12-19T21:59:14.988Z,5.63
2022-12-19T22:01:17.011Z,5.23
2022-12-19T22:03:20.804Z,5.50
2022-12-19T22:05:22.531Z,5.47
2022-12-19T22:07:24.241Z,4.57
2022-12-19T22:09:26.044Z,5.90
2022-12-19T22:11:28.790Z,5.00
2022-12-19T22:13:30.487Z,5.10
2022-12-19T22:15:32.182Z,6.30
2022-12-19T22:17:35.881Z,5.50
2022-12-19T22:19:37.977Z,4.97
2022-12-19T22:21:47.685Z,7.57
2022-12-19T22:23:49.657Z,4.23
2022-12-19T22:26:00.882Z,5.17
2022-12-19T22:28:02.856Z,4.83
2022-12-19T22:30:10.938Z,5.53
2022-12-19T22:32:14.275Z,5.17
2022-12-19T22:34:18.793Z,4.50
2022-12-19T22:36:27.628Z,4.37
2022-12-19T22:38:30.218Z,5.70
2022-12-19T22:40:34.351Z,4.40
2022-12-19T22:42:36.050Z,7.23
2022-12-19T22:44:37.861Z,4.23
2022-12-19T22:46:40.678Z,4.90
2022-12-19T22:48:46.144Z,4.33
2022-12-19T22:50:47.837Z,4.23
2022-12-19T22:52:51.751Z,4.60
2022-12-19T22:54:53.430Z,4.50
2022-12-19T22:56:56.942Z,4.17
2022-12-19T22:59:01.778Z,4.10
2022-12-19T23:01:13.172Z,5.33
2022-12-19T23:03:15.733Z,6.30
2022-12-19T23:05:19.847Z,4.00
2022-12-19T23:07:21.523Z,5.37
2022-12-19T23:09:23.182Z,5.40
2022-12-19T23:11:35.681Z,4.27
2022-12-19T23:13:39.174Z,4.80
2022-12-19T23:15:43.112Z,5.17
2022-12-19T23:17:44.752Z,4.70
2022-12-19T23:19:46.483Z,4.63
2022-12-19T23:21:48.149Z,5.17
2022-12-19T23:23:52.045Z,5.97
2022-12-19T23:25:53.687Z,5.13
2022-12-19T23:27:56.667Z,5.87
2022-12-19T23:29:58.322Z,4.90
2022-12-19T23:32:00.356Z,3.53
2022-12-19T23:34:02.162Z,4.67
2022-12-19T23:36:04.850Z,5.90
2022-12-19T23:38:10.690Z,5.40
2022-12-19T23:40:12.469Z,5.00
2022-12-19T23:42:16.271Z,4.33
2022-12-19T23:44:20.925Z,5.90
2022-12-19T23:46:26.698Z,4.47
2022-12-19T23:48:31.322Z,5.80
2022-12-19T23:50:34.024Z,4.77
2022-12-19T23:52:35.644Z,4.73
2022-12-19T23:54:37.349Z,5.23
2022-12-19T23:56:39.309Z,6.63
2022-12-19T23:58:41.192Z,5.07
